Brussels, Belgium
Current Conditions -  °F | °C
As of 8:20 PM on Friday 24 Oct 2014 (Local Time) from EBBR Reporting Station
Broken Clouds Broken Clouds  
Wind Chill: 11°   Ceiling: 2000
Heat Index: 11°   Visibility: 6mi
Dew Point:   Wind: 9mph
Humidity: 88%   Direction: 200°SSW
Pressure: 30.03"   Gusts: NA
Location:  50.85°N, 4.38°E
Report Text: EBBR 241820Z 20008KT 9999 BKN020 11/09 Q1017 TEMPO 4000 -RADZ BKN008
Loading
Personal Weather Stations






























Interactive Weather Map
Tropical Storm Tracking
New forecast layout! Learn more

10-Day Weather Forecast

Advertisements
Track Severe Weather on mobile